Weather History for Port Heiden, AK

Change the Weather History Date:

Friday, November 21, 2014

  Actual Average Record
Temperature  
Mean Temperature 42 °F -  
Max Temperature 44 °F 37 °F 53 °F (2010)
Min Temperature 39 °F 28 °F 0 °F (2012)
Degree Days  
Heating Degree Days 24    
Moisture  
Dew Point 33 °F    
Average Humidity 71    
Maximum Humidity 81    
Minimum Humidity 57    
Precipitation  
Precipitation 0.01 in - - ()
Sea Level Pressure  
Sea Level Pressure 28.51 in    
Wind  
Wind Speed 15 mph (ENE)    
Max Wind Speed 25 mph    
Max Gust Speed 34 mph    
Visibility 10 miles    
Events      
Averages and records for this station are not official NWS values.
T = Trace of Precipitation, MM = Missing Value Source: NWS Daily Summary

Daily Weather History Graph

Daily Weather History Graph

Search for Another Location

Airport:

Trip Planner

Search our weather history database for the weather conditions in past years. The results will help you decide how hot, cold, wet, or windy it might be!

Date:

Astronomy

Nov. 21, 2014 Rise Set
Actual Time 9:28 AM AKST 5:11 PM AKST
Civil Twilight 8:43 AM AKST 5:56 PM AKST
Nautical Twilight 7:55 AM AKST 6:44 PM AKST
Astronomical Twilight 7:10 AM AKST 7:29 PM AKST
Moon 8:21 AM AKST (11/21) 5:16 PM AKST (11/21)
Length of Visible Light 9h 12m
Length of Day
7h 42m
Waning Crescent, 0% of the Moon is Illuminated
Nov 21
Waning Crescent
Nov 22
New
Nov 29
First Quarter
Dec 6
Full
Dec 14
Last Quarter

Hourly Weather History & Observations

Time (AKST) Temp. Windchill Dew Point Humidity Pressure Visibility Wind Dir Wind Speed Gust Speed Precip Events Conditions
12:16 AM 41.0 °F 32.2 °F 33.8 °F 76% 28.42 in 10.0 mi ENE 18.4 mph 24.2 mph N/A   Overcast
12:36 AM 41.0 °F 31.6 °F 33.8 °F 76% 28.41 in 10.0 mi NE 20.7 mph 25.3 mph N/A   Overcast
12:56 AM 41.0 °F 32.5 °F 33.8 °F 76% 28.41 in 10.0 mi NE 17.3 mph 24.2 mph N/A   Overcast
1:16 AM 39.2 °F 30.2 °F 33.8 °F 81% 28.41 in 10.0 mi ENE 17.3 mph 23.0 mph N/A   Overcast
1:36 AM 39.2 °F 29.6 °F 33.8 °F 81% 28.40 in 10.0 mi ENE 19.6 mph 27.6 mph N/A   Mostly Cloudy
1:56 AM 39.2 °F 28.5 °F 33.8 °F 81% 28.39 in 10.0 mi ENE 24.2 mph 29.9 mph N/A   Scattered Clouds
2:16 AM 39.2 °F 29.3 °F 33.8 °F 81% 28.39 in 10.0 mi NE 20.7 mph 31.1 mph N/A   Scattered Clouds
2:36 AM 39.2 °F 29.6 °F 33.8 °F 81% 28.39 in 10.0 mi ENE 19.6 mph 26.5 mph N/A   Overcast
2:56 AM 39.2 °F 29.3 °F 33.8 °F 81% 28.39 in 10.0 mi ENE 20.7 mph - N/A   Mostly Cloudy
3:16 AM 39.2 °F 29.8 °F 32.0 °F 75% 28.38 in 10.0 mi ENE 18.4 mph 24.2 mph N/A   Mostly Cloudy
3:36 AM 39.2 °F 29.8 °F 33.8 °F 81% 28.38 in 10.0 mi ENE 18.4 mph 25.3 mph N/A   Mostly Cloudy
3:56 AM 39.2 °F 30.8 °F 33.8 °F 81% 28.38 in 10.0 mi NE 15.0 mph - N/A   Scattered Clouds
4:16 AM 39.2 °F 29.3 °F 32.0 °F 75% 28.38 in 10.0 mi NE 20.7 mph - N/A   Scattered Clouds
4:36 AM 39.2 °F 29.8 °F 33.8 °F 81% 28.36 in 10.0 mi NE 18.4 mph 26.5 mph N/A   Overcast
4:56 AM 39.2 °F 30.2 °F 33.8 °F 81% 28.36 in 10.0 mi NE 17.3 mph 23.0 mph N/A   Overcast
5:16 AM 41.0 °F 30.7 °F 33.8 °F 76% 28.34 in 10.0 mi ENE 25.3 mph 31.1 mph N/A   Mostly Cloudy
5:36 AM 41.0 °F 30.7 °F 32.0 °F 70% 28.34 in 10.0 mi ENE 25.3 mph 34.5 mph N/A   Overcast
5:56 AM 41.0 °F 30.9 °F 30.2 °F 65% 28.34 in 10.0 mi ENE 24.2 mph 33.4 mph N/A   Overcast
6:16 AM 41.0 °F 31.1 °F 32.0 °F 70% 28.35 in 10.0 mi East 23.0 mph 27.6 mph N/A   Overcast
6:36 AM 42.8 °F 35.4 °F 33.8 °F 70% 28.37 in 10.0 mi East 15.0 mph - N/A   Overcast
6:56 AM 42.8 °F 34.8 °F 33.8 °F 70% 28.38 in 10.0 mi ESE 17.3 mph - N/A   Overcast
7:16 AM 42.8 °F 34.0 °F 33.8 °F 70% 28.39 in 10.0 mi ESE 20.7 mph 26.5 mph N/A   Overcast
7:36 AM 42.8 °F 34.8 °F 33.8 °F 70% 28.41 in 10.0 mi ESE 17.3 mph 25.3 mph N/A   Overcast
7:56 AM 42.8 °F 34.3 °F 33.8 °F 70% 28.41 in 10.0 mi ESE 19.6 mph 25.3 mph N/A   Overcast
8:16 AM 42.8 °F 34.8 °F 33.8 °F 70% 28.42 in 10.0 mi ESE 17.3 mph 23.0 mph N/A   Overcast
8:36 AM 42.8 °F 36.2 °F 33.8 °F 70% 28.44 in 10.0 mi ESE 12.7 mph - N/A   Overcast
8:56 AM 42.8 °F 36.2 °F 33.8 °F 70% 28.45 in 10.0 mi ESE 12.7 mph - N/A   Overcast
9:16 AM 42.8 °F 36.2 °F 33.8 °F 70% 28.46 in 10.0 mi ESE 12.7 mph - N/A   Mostly Cloudy
9:36 AM 42.8 °F 37.5 °F 33.8 °F 70% 28.47 in 10.0 mi SE 9.2 mph - N/A   Scattered Clouds
9:56 AM 42.8 °F 39.3 °F 33.8 °F 70% 28.49 in 10.0 mi ENE 5.8 mph - N/A   Scattered Clouds
10:16 AM 42.8 °F 36.6 °F 33.8 °F 70% 28.49 in 10.0 mi ESE 11.5 mph - N/A   Mostly Cloudy
10:36 AM 42.8 °F 38.0 °F 33.8 °F 70% 28.50 in 10.0 mi ESE 8.1 mph - N/A   Scattered Clouds
10:56 AM 42.8 °F 37.5 °F 33.8 °F 70% 28.51 in 10.0 mi East 9.2 mph - N/A   Scattered Clouds
11:16 AM 42.8 °F 38.6 °F 32.0 °F 66% 28.52 in 10.0 mi ESE 6.9 mph - N/A   Mostly Cloudy
11:36 AM 44.6 °F 40.2 °F 32.0 °F 61% 28.52 in 10.0 mi ESE 8.1 mph - N/A   Mostly Cloudy
11:56 AM 42.8 °F 37.5 °F 33.8 °F 70% 28.53 in 10.0 mi ESE 9.2 mph - N/A   Mostly Cloudy
12:16 PM 42.8 °F 37.5 °F 33.8 °F 70% 28.54 in 10.0 mi ESE 9.2 mph - N/A   Scattered Clouds
12:36 PM 42.8 °F 36.2 °F 32.0 °F 66% 28.54 in 10.0 mi East 12.7 mph - N/A   Mostly Cloudy
12:56 PM 42.8 °F 37.5 °F 33.8 °F 70% 28.54 in 10.0 mi East 9.2 mph 16.1 mph N/A   Scattered Clouds
1:16 PM 44.6 °F 38.8 °F 30.2 °F 57% 28.54 in 10.0 mi East 11.5 mph 18.4 mph N/A   Scattered Clouds
1:36 PM 42.8 °F 38.6 °F 33.8 °F 70% 28.55 in 10.0 mi ENE 6.9 mph - N/A   Mostly Cloudy
1:56 PM 42.8 °F 41.1 °F 33.8 °F 70% 28.55 in 10.0 mi East 3.5 mph - N/A   Overcast
2:16 PM 44.6 °F 43.1 °F 33.8 °F 66% 28.55 in 10.0 mi East 3.5 mph - N/A   Overcast
2:36 PM 42.8 °F 39.3 °F 33.8 °F 70% 28.56 in 10.0 mi ENE 5.8 mph - N/A   Mostly Cloudy
2:56 PM 42.8 °F 39.3 °F 33.8 °F 70% 28.56 in 10.0 mi ENE 5.8 mph - N/A   Mostly Cloudy
3:16 PM 44.6 °F 42.2 °F 32.0 °F 61% 28.56 in 10.0 mi NNE 4.6 mph - N/A   Overcast
3:36 PM 42.8 °F 40.1 °F 33.8 °F 70% 28.57 in 10.0 mi ENE 4.6 mph - N/A   Overcast
3:56 PM 42.8 °F 37.5 °F 32.0 °F 66% 28.57 in 10.0 mi NE 9.2 mph - N/A   Overcast
4:16 PM 42.8 °F 37.5 °F 32.0 °F 66% 28.57 in 10.0 mi NE 9.2 mph - N/A   Overcast
4:36 PM 42.8 °F 38.0 °F 32.0 °F 66% 28.58 in 10.0 mi ENE 8.1 mph - N/A   Overcast
4:56 PM 42.8 °F 38.6 °F 32.0 °F 66% 28.59 in 10.0 mi NNE 6.9 mph - N/A   Overcast
5:16 PM 42.8 °F 37.5 °F 32.0 °F 66% 28.59 in 10.0 mi ENE 9.2 mph - N/A   Overcast
5:36 PM 41.0 °F 33.9 °F 32.0 °F 70% 28.59 in 10.0 mi NE 12.7 mph - N/A   Overcast
5:56 PM 41.0 °F 34.3 °F 32.0 °F 70% 28.59 in 10.0 mi ENE 11.5 mph - N/A   Overcast
6:16 PM 41.0 °F 33.9 °F 32.0 °F 70% 28.60 in 10.0 mi ENE 12.7 mph 20.7 mph N/A   Overcast
6:36 PM 42.8 °F 35.8 °F 30.2 °F 61% 28.60 in 10.0 mi ENE 13.8 mph - N/A   Overcast
6:56 PM 42.8 °F 36.2 °F 32.0 °F 66% 28.60 in 10.0 mi ENE 12.7 mph - N/A   Overcast
7:16 PM 41.0 °F 34.3 °F 32.0 °F 70% 28.61 in 10.0 mi ENE 11.5 mph - N/A   Overcast
7:36 PM 42.8 °F 37.5 °F 32.0 °F 66% 28.61 in 10.0 mi ENE 9.2 mph - N/A   Overcast
7:56 PM 42.8 °F 37.0 °F 32.0 °F 66% 28.62 in 10.0 mi ENE 10.4 mph - N/A   Overcast
8:16 PM 41.0 °F 34.7 °F 32.0 °F 70% 28.62 in 10.0 mi NE 10.4 mph - N/A   Overcast
8:36 PM 41.0 °F 34.7 °F 32.0 °F 70% 28.63 in 10.0 mi NE 10.4 mph - N/A   Mostly Cloudy
8:56 PM 41.0 °F 34.3 °F 32.0 °F 70% 28.63 in 10.0 mi ENE 11.5 mph - N/A   Overcast
9:16 PM 41.0 °F 35.2 °F 32.0 °F 70% 28.63 in 10.0 mi NE 9.2 mph - N/A   Overcast
9:36 PM 39.2 °F 33.0 °F 32.0 °F 75% 28.64 in 10.0 mi NE 9.2 mph - N/A   Overcast
9:56 PM 39.2 °F 35.9 °F 32.0 °F 75% 28.65 in 10.0 mi ENE 4.6 mph - N/A   Overcast
10:16 PM 39.2 °F 35.9 °F 32.0 °F 75% 28.65 in 10.0 mi ENE 4.6 mph - N/A   Overcast
10:36 PM 39.2 °F 35.0 °F 30.2 °F 70% 28.66 in 10.0 mi East 5.8 mph - N/A   Overcast
10:56 PM 39.2 °F 33.6 °F 30.2 °F 70% 28.66 in 10.0 mi ENE 8.1 mph - N/A   Mostly Cloudy
11:16 PM 41.0 °F 36.4 °F 32.0 °F 70% 28.67 in 10.0 mi ENE 6.9 mph - N/A   Overcast
11:36 PM 39.2 °F 34.2 °F 30.2 °F 70% 28.68 in 10.0 mi ENE 6.9 mph - N/A   Mostly Cloudy
11:56 PM 41.0 °F 37.1 °F 30.2 °F 65% 28.69 in 10.0 mi East 5.8 mph - N/A   Mostly Cloudy